sensor_id;sensor_type;location;lat;lon;timestamp;temperature;humidity
60965;DHT22;46834;51.100;6.886;2022-09-17T00:02:23;12.10;49.30
60965;DHT22;46834;51.100;6.886;2022-09-17T00:04:50;12.20;49.40
60965;DHT22;46834;51.100;6.886;2022-09-17T00:07:16;12.20;49.40
60965;DHT22;46834;51.100;6.886;2022-09-17T00:09:42;12.10;49.30
60965;DHT22;46834;51.100;6.886;2022-09-17T00:12:08;12.10;49.40
60965;DHT22;46834;51.100;6.886;2022-09-17T00:14:34;12.20;49.60
60965;DHT22;46834;51.100;6.886;2022-09-17T00:17:00;12.20;49.60
60965;DHT22;46834;51.100;6.886;2022-09-17T00:19:26;12.20;49.50
60965;DHT22;46834;51.100;6.886;2022-09-17T00:21:52;12.20;49.60
60965;DHT22;46834;51.100;6.886;2022-09-17T00:24:18;12.20;49.50
60965;DHT22;46834;51.100;6.886;2022-09-17T00:26:45;12.20;49.60
60965;DHT22;46834;51.100;6.886;2022-09-17T00:29:11;12.20;49.60
60965;DHT22;46834;51.100;6.886;2022-09-17T00:31:37;12.20;49.70
60965;DHT22;46834;51.100;6.886;2022-09-17T00:34:05;12.20;49.70
60965;DHT22;46834;51.100;6.886;2022-09-17T00:36:34;12.20;49.70
60965;DHT22;46834;51.100;6.886;2022-09-17T00:39:01;12.20;49.80
60965;DHT22;46834;51.100;6.886;2022-09-17T00:41:31;12.20;49.70
60965;DHT22;46834;51.100;6.886;2022-09-17T00:44:00;12.20;49.70
60965;DHT22;46834;51.100;6.886;2022-09-17T00:46:46;12.20;49.80
60965;DHT22;46834;51.100;6.886;2022-09-17T00:49:17;12.20;49.70
60965;DHT22;46834;51.100;6.886;2022-09-17T00:51:55;12.20;49.90
60965;DHT22;46834;51.100;6.886;2022-09-17T00:54:25;12.20;50.00
60965;DHT22;46834;51.100;6.886;2022-09-17T00:56:51;12.20;49.80
60965;DHT22;46834;51.100;6.886;2022-09-17T00:59:18;12.20;49.80
60965;DHT22;46834;51.100;6.886;2022-09-17T01:01:44;12.20;49.80
60965;DHT22;46834;51.100;6.886;2022-09-17T01:04:23;12.20;49.90
60965;DHT22;46834;51.100;6.886;2022-09-17T01:10:07;12.20;50.30
60965;DHT22;46834;51.100;6.886;2022-09-17T01:16:08;12.20;50.00
60965;DHT22;46834;51.100;6.886;2022-09-17T01:27:37;12.20;50.10
60965;DHT22;46834;51.100;6.886;2022-09-17T01:30:35;12.20;50.10
60965;DHT22;46834;51.100;6.886;2022-09-17T01:33:38;12.10;49.80
60965;DHT22;46834;51.100;6.886;2022-09-17T01:39:41;12.10;49.90
60965;DHT22;46834;51.100;6.886;2022-09-17T01:42:33;12.10;49.80
60965;DHT22;46834;51.100;6.886;2022-09-17T01:45:24;12.10;49.90
60965;DHT22;46834;51.100;6.886;2022-09-17T01:48:02;12.10;50.10
60965;DHT22;46834;51.100;6.886;2022-09-17T01:50:38;12.00;50.10
60965;DHT22;46834;51.100;6.886;2022-09-17T01:53:09;12.00;50.00
60965;DHT22;46834;51.100;6.886;2022-09-17T01:55:38;12.00;49.90
60965;DHT22;46834;51.100;6.886;2022-09-17T01:58:22;12.00;50.00
60965;DHT22;46834;51.100;6.886;2022-09-17T02:00:59;12.00;50.10
60965;DHT22;46834;51.100;6.886;2022-09-17T02:03:34;12.00;50.20
60965;DHT22;46834;51.100;6.886;2022-09-17T02:06:16;12.00;50.10
60965;DHT22;46834;51.100;6.886;2022-09-17T02:08:58;12.00;50.40
60965;DHT22;46834;51.100;6.886;2022-09-17T02:11:32;12.00;50.30
60965;DHT22;46834;51.100;6.886;2022-09-17T02:14:18;11.90;50.00
60965;DHT22;46834;51.100;6.886;2022-09-17T02:16:49;11.90;50.20
60965;DHT22;46834;51.100;6.886;2022-09-17T02:19:25;11.90;50.10
60965;DHT22;46834;51.100;6.886;2022-09-17T02:22:00;11.90;50.30
60965;DHT22;46834;51.100;6.886;2022-09-17T02:25:14;11.90;50.30
60965;DHT22;46834;51.100;6.886;2022-09-17T02:28:01;11.90;50.60
60965;DHT22;46834;51.100;6.886;2022-09-17T02:30:33;11.90;50.60
60965;DHT22;46834;51.100;6.886;2022-09-17T02:33:01;11.90;50.30
60965;DHT22;46834;51.100;6.886;2022-09-17T02:35:31;11.90;50.40
60965;DHT22;46834;51.100;6.886;2022-09-17T02:37:58;11.90;50.40
60965;DHT22;46834;51.100;6.886;2022-09-17T02:40:28;11.90;50.40
60965;DHT22;46834;51.100;6.886;2022-09-17T02:43:10;11.90;50.50
60965;DHT22;46834;51.100;6.886;2022-09-17T02:46:23;11.90;50.80
60965;DHT22;46834;51.100;6.886;2022-09-17T02:55:49;12.00;50.50
60965;DHT22;46834;51.100;6.886;2022-09-17T02:58:23;12.00;51.00
60965;DHT22;46834;51.100;6.886;2022-09-17T03:00:54;12.00;51.00
60965;DHT22;46834;51.100;6.886;2022-09-17T03:03:35;12.00;50.70
60965;DHT22;46834;51.100;6.886;2022-09-17T03:06:04;12.00;50.80
60965;DHT22;46834;51.100;6.886;2022-09-17T03:08:39;12.00;50.60
60965;DHT22;46834;51.100;6.886;2022-09-17T03:11:07;12.00;50.80
60965;DHT22;46834;51.100;6.886;2022-09-17T03:13:35;12.00;50.60
60965;DHT22;46834;51.100;6.886;2022-09-17T03:16:02;12.00;50.70
60965;DHT22;46834;51.100;6.886;2022-09-17T03:18:28;12.00;50.70
60965;DHT22;46834;51.100;6.886;2022-09-17T03:20:54;12.00;50.70
60965;DHT22;46834;51.100;6.886;2022-09-17T03:23:20;12.00;50.70
60965;DHT22;46834;51.100;6.886;2022-09-17T03:25:46;12.00;50.70
60965;DHT22;46834;51.100;6.886;2022-09-17T03:28:14;12.00;50.70
60965;DHT22;46834;51.100;6.886;2022-09-17T03:30:42;12.00;50.70
60965;DHT22;46834;51.100;6.886;2022-09-17T03:33:09;12.00;50.70
60965;DHT22;46834;51.100;6.886;2022-09-17T03:35:35;12.00;50.60
60965;DHT22;46834;51.100;6.886;2022-09-17T03:38:00;12.00;50.70
60965;DHT22;46834;51.100;6.886;2022-09-17T03:40:26;12.00;50.60
60965;DHT22;46834;51.100;6.886;2022-09-17T03:42:52;12.00;50.60
60965;DHT22;46834;51.100;6.886;2022-09-17T03:45:17;12.00;50.70
60965;DHT22;46834;51.100;6.886;2022-09-17T03:47:43;12.00;50.70
60965;DHT22;46834;51.100;6.886;2022-09-17T03:50:09;12.00;50.70
60965;DHT22;46834;51.100;6.886;2022-09-17T03:52:35;12.00;50.70
60965;DHT22;46834;51.100;6.886;2022-09-17T03:55:01;12.00;50.80
60965;DHT22;46834;51.100;6.886;2022-09-17T03:57:27;12.00;50.90
60965;DHT22;46834;51.100;6.886;2022-09-17T03:59:53;12.00;50.80
60965;DHT22;46834;51.100;6.886;2022-09-17T04:02:19;12.00;50.80
60965;DHT22;46834;51.100;6.886;2022-09-17T04:04:44;12.00;50.80
60965;DHT22;46834;51.100;6.886;2022-09-17T04:07:10;12.00;50.80
60965;DHT22;46834;51.100;6.886;2022-09-17T04:09:35;12.00;50.90
60965;DHT22;46834;51.100;6.886;2022-09-17T04:12:01;12.00;50.90
60965;DHT22;46834;51.100;6.886;2022-09-17T04:14:27;12.00;50.90
60965;DHT22;46834;51.100;6.886;2022-09-17T04:16:53;12.00;50.80
60965;DHT22;46834;51.100;6.886;2022-09-17T04:19:19;12.00;50.80
60965;DHT22;46834;51.100;6.886;2022-09-17T04:21:44;12.00;50.80
60965;DHT22;46834;51.100;6.886;2022-09-17T04:24:10;12.00;50.80
60965;DHT22;46834;51.100;6.886;2022-09-17T04:26:36;12.00;50.80
60965;DHT22;46834;51.100;6.886;2022-09-17T04:29:01;12.00;50.80
60965;DHT22;46834;51.100;6.886;2022-09-17T04:31:27;12.00;50.90
60965;DHT22;46834;51.100;6.886;2022-09-17T04:33:53;12.00;50.90
60965;DHT22;46834;51.100;6.886;2022-09-17T04:36:19;12.00;50.90
60965;DHT22;46834;51.100;6.886;2022-09-17T04:38:48;12.00;50.90
60965;DHT22;46834;51.100;6.886;2022-09-17T04:41:14;12.00;51.00
60965;DHT22;46834;51.100;6.886;2022-09-17T04:43:40;11.90;50.90
60965;DHT22;46834;51.100;6.886;2022-09-17T04:46:05;11.90;50.80
60965;DHT22;46834;51.100;6.886;2022-09-17T04:48:31;11.90;50.80
60965;DHT22;46834;51.100;6.886;2022-09-17T04:50:57;11.90;50.70
60965;DHT22;46834;51.100;6.886;2022-09-17T04:53:23;11.90;50.70
60965;DHT22;46834;51.100;6.886;2022-09-17T04:55:48;11.80;50.70
60965;DHT22;46834;51.100;6.886;2022-09-17T04:58:14;11.80;50.70
60965;DHT22;46834;51.100;6.886;2022-09-17T05:00:40;11.80;50.80
60965;DHT22;46834;51.100;6.886;2022-09-17T05:03:07;11.70;50.70
60965;DHT22;46834;51.100;6.886;2022-09-17T05:05:33;11.70;50.70
60965;DHT22;46834;51.100;6.886;2022-09-17T05:07:59;11.70;50.80
60965;DHT22;46834;51.100;6.886;2022-09-17T05:10:25;11.70;50.80
60965;DHT22;46834;51.100;6.886;2022-09-17T05:12:53;11.60;50.70
60965;DHT22;46834;51.100;6.886;2022-09-17T05:15:21;11.60;50.80
60965;DHT22;46834;51.100;6.886;2022-09-17T05:17:48;11.60;50.80
60965;DHT22;46834;51.100;6.886;2022-09-17T05:20:15;11.60;50.80
60965;DHT22;46834;51.100;6.886;2022-09-17T05:22:48;11.50;50.70
60965;DHT22;46834;51.100;6.886;2022-09-17T05:25:17;11.50;50.90
60965;DHT22;46834;51.100;6.886;2022-09-17T05:27:44;11.50;50.80
60965;DHT22;46834;51.100;6.886;2022-09-17T05:30:11;11.40;50.80
60965;DHT22;46834;51.100;6.886;2022-09-17T05:32:37;11.40;50.90
60965;DHT22;46834;51.100;6.886;2022-09-17T05:35:05;11.40;50.90
60965;DHT22;46834;51.100;6.886;2022-09-17T05:37:32;11.40;50.90
60965;DHT22;46834;51.100;6.886;2022-09-17T05:39:57;11.40;51.00
60965;DHT22;46834;51.100;6.886;2022-09-17T05:42:23;11.40;51.10
60965;DHT22;46834;51.100;6.886;2022-09-17T05:44:49;11.40;51.10
60965;DHT22;46834;51.100;6.886;2022-09-17T05:47:15;11.40;51.10
60965;DHT22;46834;51.100;6.886;2022-09-17T05:49:40;11.40;51.20
60965;DHT22;46834;51.100;6.886;2022-09-17T05:52:06;11.40;51.20
60965;DHT22;46834;51.100;6.886;2022-09-17T05:54:32;11.50;51.40
60965;DHT22;46834;51.100;6.886;2022-09-17T05:56:57;11.50;51.30
60965;DHT22;46834;51.100;6.886;2022-09-17T05:59:23;11.50;51.30
60965;DHT22;46834;51.100;6.886;2022-09-17T06:01:49;11.60;51.50
60965;DHT22;46834;51.100;6.886;2022-09-17T06:04:15;11.60;52.10
60965;DHT22;46834;51.100;6.886;2022-09-17T06:06:42;11.70;51.50
60965;DHT22;46834;51.100;6.886;2022-09-17T06:09:08;11.70;51.50
60965;DHT22;46834;51.100;6.886;2022-09-17T06:11:35;11.80;51.60
60965;DHT22;46834;51.100;6.886;2022-09-17T06:14:01;11.80;51.60
60965;DHT22;46834;51.100;6.886;2022-09-17T06:16:27;11.90;51.70
60965;DHT22;46834;51.100;6.886;2022-09-17T06:18:53;11.90;51.60
60965;DHT22;46834;51.100;6.886;2022-09-17T06:21:19;12.00;51.70
60965;DHT22;46834;51.100;6.886;2022-09-17T06:23:49;12.10;51.70
60965;DHT22;46834;51.100;6.886;2022-09-17T06:26:15;12.10;51.60
60965;DHT22;46834;51.100;6.886;2022-09-17T06:28:41;12.20;51.60
60965;DHT22;46834;51.100;6.886;2022-09-17T06:31:08;12.20;51.50
60965;DHT22;46834;51.100;6.886;2022-09-17T06:33:35;12.20;51.40
60965;DHT22;46834;51.100;6.886;2022-09-17T06:36:04;12.20;51.40
60965;DHT22;46834;51.100;6.886;2022-09-17T06:38:33;12.20;51.30
60965;DHT22;46834;51.100;6.886;2022-09-17T06:41:00;12.30;51.30
60965;DHT22;46834;51.100;6.886;2022-09-17T06:43:26;12.30;51.20
60965;DHT22;46834;51.100;6.886;2022-09-17T06:45:56;12.20;51.00
60965;DHT22;46834;51.100;6.886;2022-09-17T06:48:24;12.20;51.00
60965;DHT22;46834;51.100;6.886;2022-09-17T06:50:54;12.20;51.00
60965;DHT22;46834;51.100;6.886;2022-09-17T06:53:21;12.20;51.00
60965;DHT22;46834;51.100;6.886;2022-09-17T06:55:47;12.20;51.00
60965;DHT22;46834;51.100;6.886;2022-09-17T06:58:13;12.20;51.00
60965;DHT22;46834;51.100;6.886;2022-09-17T07:00:39;12.20;50.90
60965;DHT22;46834;51.100;6.886;2022-09-17T07:03:05;12.10;50.90
60965;DHT22;46834;51.100;6.886;2022-09-17T07:05:31;12.10;50.90
60965;DHT22;46834;51.100;6.886;2022-09-17T07:07:59;12.10;51.00
60965;DHT22;46834;51.100;6.886;2022-09-17T07:10:27;12.10;51.10
60965;DHT22;46834;51.100;6.886;2022-09-17T07:12:54;12.20;51.30
60965;DHT22;46834;51.100;6.886;2022-09-17T07:15:19;12.20;51.40
60965;DHT22;46834;51.100;6.886;2022-09-17T07:17:45;12.30;51.60
60965;DHT22;46834;51.100;6.886;2022-09-17T07:20:11;12.30;51.60
60965;DHT22;46834;51.100;6.886;2022-09-17T07:22:38;12.40;51.60
60965;DHT22;46834;51.100;6.886;2022-09-17T07:25:04;12.50;51.50
60965;DHT22;46834;51.100;6.886;2022-09-17T07:27:31;12.60;51.40
60965;DHT22;46834;51.100;6.886;2022-09-17T07:29:57;12.60;51.20
60965;DHT22;46834;51.100;6.886;2022-09-17T07:32:23;12.60;51.20
60965;DHT22;46834;51.100;6.886;2022-09-17T07:34:49;12.70;51.40
60965;DHT22;46834;51.100;6.886;2022-09-17T07:37:16;12.80;51.40
60965;DHT22;46834;51.100;6.886;2022-09-17T07:39:42;12.80;51.30
60965;DHT22;46834;51.100;6.886;2022-09-17T07:42:09;12.90;51.40
60965;DHT22;46834;51.100;6.886;2022-09-17T07:44:35;12.90;51.30
60965;DHT22;46834;51.100;6.886;2022-09-17T07:47:01;13.00;51.20
60965;DHT22;46834;51.100;6.886;2022-09-17T07:49:27;13.00;51.10
60965;DHT22;46834;51.100;6.886;2022-09-17T07:51:53;13.10;51.00
60965;DHT22;46834;51.100;6.886;2022-09-17T07:54:22;13.10;51.00
60965;DHT22;46834;51.100;6.886;2022-09-17T07:56:48;13.10;51.00
60965;DHT22;46834;51.100;6.886;2022-09-17T07:59:13;13.10;50.90
60965;DHT22;46834;51.100;6.886;2022-09-17T08:01:39;13.20;51.00
60965;DHT22;46834;51.100;6.886;2022-09-17T08:04:05;13.20;50.90
60965;DHT22;46834;51.100;6.886;2022-09-17T08:06:34;13.20;50.80
60965;DHT22;46834;51.100;6.886;2022-09-17T08:09:02;13.30;50.80
60965;DHT22;46834;51.100;6.886;2022-09-17T08:11:29;13.40;50.80
60965;DHT22;46834;51.100;6.886;2022-09-17T08:13:56;13.40;50.60
60965;DHT22;46834;51.100;6.886;2022-09-17T08:16:22;13.50;50.60
60965;DHT22;46834;51.100;6.886;2022-09-17T08:18:54;13.50;50.40
60965;DHT22;46834;51.100;6.886;2022-09-17T08:21:20;13.60;50.40
60965;DHT22;46834;51.100;6.886;2022-09-17T08:23:46;13.70;50.30
60965;DHT22;46834;51.100;6.886;2022-09-17T08:26:17;13.80;50.20
60965;DHT22;46834;51.100;6.886;2022-09-17T08:28:46;13.80;50.00
60965;DHT22;46834;51.100;6.886;2022-09-17T08:31:15;13.80;50.00
60965;DHT22;46834;51.100;6.886;2022-09-17T08:33:43;13.90;50.00
60965;DHT22;46834;51.100;6.886;2022-09-17T08:36:11;13.90;50.50
60965;DHT22;46834;51.100;6.886;2022-09-17T08:38:38;14.00;49.90
60965;DHT22;46834;51.100;6.886;2022-09-17T08:46:33;14.20;49.20
60965;DHT22;46834;51.100;6.886;2022-09-17T08:49:29;14.20;49.20
60965;DHT22;46834;51.100;6.886;2022-09-17T08:52:19;14.20;48.50
60965;DHT22;46834;51.100;6.886;2022-09-17T08:55:34;14.20;49.00
60965;DHT22;46834;51.100;6.886;2022-09-17T09:01:23;14.30;48.90
60965;DHT22;46834;51.100;6.886;2022-09-17T09:04:35;14.30;48.90
60965;DHT22;46834;51.100;6.886;2022-09-17T09:07:19;14.30;48.80
60965;DHT22;46834;51.100;6.886;2022-09-17T09:10:05;14.30;49.00
60965;DHT22;46834;51.100;6.886;2022-09-17T09:12:45;14.30;48.30
60965;DHT22;46834;51.100;6.886;2022-09-17T09:15:22;14.40;48.90
60965;DHT22;46834;51.100;6.886;2022-09-17T09:17:51;14.40;48.80
60965;DHT22;46834;51.100;6.886;2022-09-17T09:20:36;14.40;49.10
60965;DHT22;46834;51.100;6.886;2022-09-17T09:23:39;14.40;48.60
60965;DHT22;46834;51.100;6.886;2022-09-17T09:26:17;14.40;48.10
60965;DHT22;46834;51.100;6.886;2022-09-17T09:28:57;14.50;48.40
60965;DHT22;46834;51.100;6.886;2022-09-17T09:34:53;14.60;48.00
60965;DHT22;46834;51.100;6.886;2022-09-17T09:37:32;14.60;48.00
60965;DHT22;46834;51.100;6.886;2022-09-17T09:42:52;14.70;47.60
60965;DHT22;46834;51.100;6.886;2022-09-17T09:45:46;14.80;48.10
60965;DHT22;46834;51.100;6.886;2022-09-17T09:57:36;14.90;47.80
60965;DHT22;46834;51.100;6.886;2022-09-17T10:03:12;14.90;47.00
60965;DHT22;46834;51.100;6.886;2022-09-17T10:05:52;14.90;47.40
60965;DHT22;46834;51.100;6.886;2022-09-17T10:08:23;14.80;47.50
60965;DHT22;46834;51.100;6.886;2022-09-17T10:11:05;14.90;47.60
60965;DHT22;46834;51.100;6.886;2022-09-17T10:13:39;14.90;47.30
60965;DHT22;46834;51.100;6.886;2022-09-17T10:16:25;14.90;47.50
60965;DHT22;46834;51.100;6.886;2022-09-17T10:21:36;14.90;47.20
60965;DHT22;46834;51.100;6.886;2022-09-17T10:24:24;15.00;46.70
60965;DHT22;46834;51.100;6.886;2022-09-17T10:27:14;15.00;47.20
60965;DHT22;46834;51.100;6.886;2022-09-17T10:29:44;15.00;47.40
60965;DHT22;46834;51.100;6.886;2022-09-17T10:32:15;15.10;47.80
60965;DHT22;46834;51.100;6.886;2022-09-17T10:35:04;15.10;47.20
60965;DHT22;46834;51.100;6.886;2022-09-17T10:37:45;15.20;46.70
60965;DHT22;46834;51.100;6.886;2022-09-17T10:42:43;15.40;47.00
60965;DHT22;46834;51.100;6.886;2022-09-17T10:45:37;15.50;47.60
60965;DHT22;46834;51.100;6.886;2022-09-17T10:48:14;15.50;47.40
60965;DHT22;46834;51.100;6.886;2022-09-17T10:50:54;15.70;47.40
60965;DHT22;46834;51.100;6.886;2022-09-17T10:53:21;15.80;47.60
60965;DHT22;46834;51.100;6.886;2022-09-17T10:59:03;16.10;46.60
60965;DHT22;46834;51.100;6.886;2022-09-17T11:11:10;16.20;45.90
60965;DHT22;46834;51.100;6.886;2022-09-17T11:17:20;16.20;45.80
60965;DHT22;46834;51.100;6.886;2022-09-17T11:32:51;16.20;45.00
60965;DHT22;46834;51.100;6.886;2022-09-17T11:35:58;16.30;45.00
60965;DHT22;46834;51.100;6.886;2022-09-17T11:38:49;16.30;45.00
60965;DHT22;46834;51.100;6.886;2022-09-17T11:44:04;16.20;44.90
60965;DHT22;46834;51.100;6.886;2022-09-17T11:46:42;16.20;45.20
60965;DHT22;46834;51.100;6.886;2022-09-17T11:51:53;15.90;45.50
60965;DHT22;46834;51.100;6.886;2022-09-17T11:54:52;15.80;45.80
60965;DHT22;46834;51.100;6.886;2022-09-17T11:57:23;15.70;46.20
60965;DHT22;46834;51.100;6.886;2022-09-17T12:00:11;15.50;46.30
60965;DHT22;46834;51.100;6.886;2022-09-17T12:08:45;15.30;47.30
60965;DHT22;46834;51.100;6.886;2022-09-17T12:11:21;15.30;47.50
60965;DHT22;46834;51.100;6.886;2022-09-17T12:17:41;15.30;47.50
60965;DHT22;46834;51.100;6.886;2022-09-17T12:20:27;15.30;47.30
60965;DHT22;46834;51.100;6.886;2022-09-17T12:22:57;15.30;47.30
60965;DHT22;46834;51.100;6.886;2022-09-17T12:25:33;15.30;47.50
60965;DHT22;46834;51.100;6.886;2022-09-17T12:28:18;15.40;47.70
60965;DHT22;46834;51.100;6.886;2022-09-17T12:37:19;15.70;47.10
60965;DHT22;46834;51.100;6.886;2022-09-17T12:55:02;16.20;46.80
60965;DHT22;46834;51.100;6.886;2022-09-17T13:00:47;15.90;46.20
60965;DHT22;46834;51.100;6.886;2022-09-17T13:03:25;15.70;46.10
60965;DHT22;46834;51.100;6.886;2022-09-17T13:06:20;15.50;46.40
60965;DHT22;46834;51.100;6.886;2022-09-17T13:17:50;15.20;47.20
60965;DHT22;46834;51.100;6.886;2022-09-17T13:20:40;15.10;47.30
60965;DHT22;46834;51.100;6.886;2022-09-17T13:23:38;15.10;47.30
60965;DHT22;46834;51.100;6.886;2022-09-17T13:26:07;15.10;47.10
60965;DHT22;46834;51.100;6.886;2022-09-17T13:28:40;15.10;47.30
60965;DHT22;46834;51.100;6.886;2022-09-17T13:31:21;15.00;47.20
60965;DHT22;46834;51.100;6.886;2022-09-17T13:34:01;15.00;47.20
60965;DHT22;46834;51.100;6.886;2022-09-17T13:36:45;15.00;47.20
60965;DHT22;46834;51.100;6.886;2022-09-17T13:42:27;14.90;47.40
60965;DHT22;46834;51.100;6.886;2022-09-17T13:45:11;14.90;47.90
60965;DHT22;46834;51.100;6.886;2022-09-17T13:48:02;14.90;47.80
60965;DHT22;46834;51.100;6.886;2022-09-17T13:50:32;15.00;47.70
60965;DHT22;46834;51.100;6.886;2022-09-17T13:55:51;15.10;48.10
60965;DHT22;46834;51.100;6.886;2022-09-17T13:58:29;15.10;47.80
60965;DHT22;46834;51.100;6.886;2022-09-17T14:03:50;15.10;47.80
60965;DHT22;46834;51.100;6.886;2022-09-17T14:13:54;15.40;47.50
60965;DHT22;46834;51.100;6.886;2022-09-17T14:24:24;15.60;47.40
60965;DHT22;46834;51.100;6.886;2022-09-17T14:30:01;15.70;47.30
60965;DHT22;46834;51.100;6.886;2022-09-17T14:32:41;15.80;47.10
60965;DHT22;46834;51.100;6.886;2022-09-17T14:35:27;15.90;47.00
60965;DHT22;46834;51.100;6.886;2022-09-17T14:46:32;15.80;46.10
60965;DHT22;46834;51.100;6.886;2022-09-17T14:49:21;15.70;46.30
60965;DHT22;46834;51.100;6.886;2022-09-17T14:51:47;15.70;46.20
60965;DHT22;46834;51.100;6.886;2022-09-17T14:54:17;15.70;46.60
60965;DHT22;46834;51.100;6.886;2022-09-17T14:57:01;15.70;46.50
60965;DHT22;46834;51.100;6.886;2022-09-17T15:04:58;15.60;46.60
60965;DHT22;46834;51.100;6.886;2022-09-17T15:07:25;15.60;46.60
60965;DHT22;46834;51.100;6.886;2022-09-17T15:09:51;15.50;46.40
60965;DHT22;46834;51.100;6.886;2022-09-17T15:12:23;15.50;46.50
60965;DHT22;46834;51.100;6.886;2022-09-17T15:14:54;15.50;46.50
60965;DHT22;46834;51.100;6.886;2022-09-17T15:17:22;15.40;46.50
60965;DHT22;46834;51.100;6.886;2022-09-17T15:19:51;15.40;46.60
60965;DHT22;46834;51.100;6.886;2022-09-17T15:22:25;15.40;46.60
60965;DHT22;46834;51.100;6.886;2022-09-17T15:25:02;15.40;46.50
60965;DHT22;46834;51.100;6.886;2022-09-17T15:27:39;15.40;46.30
60965;DHT22;46834;51.100;6.886;2022-09-17T15:30:20;15.30;46.10
60965;DHT22;46834;51.100;6.886;2022-09-17T15:32:50;15.30;45.60
60965;DHT22;46834;51.100;6.886;2022-09-17T15:35:26;15.30;45.80
60965;DHT22;46834;51.100;6.886;2022-09-17T15:38:20;15.30;45.60
60965;DHT22;46834;51.100;6.886;2022-09-17T15:40:50;15.30;45.50
60965;DHT22;46834;51.100;6.886;2022-09-17T15:43:29;15.20;45.60
60965;DHT22;46834;51.100;6.886;2022-09-17T15:48:46;15.20;45.20
60965;DHT22;46834;51.100;6.886;2022-09-17T15:53:55;15.10;45.30
60965;DHT22;46834;51.100;6.886;2022-09-17T15:56:34;15.10;45.50
60965;DHT22;46834;51.100;6.886;2022-09-17T15:59:27;15.10;45.60
60965;DHT22;46834;51.100;6.886;2022-09-17T16:01:56;15.10;45.30
60965;DHT22;46834;51.100;6.886;2022-09-17T16:04:32;15.10;45.70
60965;DHT22;46834;51.100;6.886;2022-09-17T16:09:47;15.10;45.30
60965;DHT22;46834;51.100;6.886;2022-09-17T16:12:17;15.10;45.40
60965;DHT22;46834;51.100;6.886;2022-09-17T16:14:46;15.10;45.40
60965;DHT22;46834;51.100;6.886;2022-09-17T16:17:32;15.10;45.20
60965;DHT22;46834;51.100;6.886;2022-09-17T16:20:11;15.10;45.00
60965;DHT22;46834;51.100;6.886;2022-09-17T16:22:48;15.20;44.90
60965;DHT22;46834;51.100;6.886;2022-09-17T16:25:23;15.10;45.00
60965;DHT22;46834;51.100;6.886;2022-09-17T16:27:53;15.10;44.90
60965;DHT22;46834;51.100;6.886;2022-09-17T16:30:23;15.10;45.00
60965;DHT22;46834;51.100;6.886;2022-09-17T16:32:49;15.10;45.10
60965;DHT22;46834;51.100;6.886;2022-09-17T16:35:19;15.10;45.10
60965;DHT22;46834;51.100;6.886;2022-09-17T16:37:51;15.10;45.10
60965;DHT22;46834;51.100;6.886;2022-09-17T16:40:19;15.00;45.00
60965;DHT22;46834;51.100;6.886;2022-09-17T16:42:46;15.00;45.00
60965;DHT22;46834;51.100;6.886;2022-09-17T16:45:12;15.00;44.80
60965;DHT22;46834;51.100;6.886;2022-09-17T16:47:39;15.00;44.60
60965;DHT22;46834;51.100;6.886;2022-09-17T16:50:11;14.90;44.50
60965;DHT22;46834;51.100;6.886;2022-09-17T16:52:39;15.00;44.40
60965;DHT22;46834;51.100;6.886;2022-09-17T16:55:05;14.90;44.30
60965;DHT22;46834;51.100;6.886;2022-09-17T16:57:31;14.90;44.30
60965;DHT22;46834;51.100;6.886;2022-09-17T16:59:58;14.90;44.10
60965;DHT22;46834;51.100;6.886;2022-09-17T17:02:24;14.80;44.00
60965;DHT22;46834;51.100;6.886;2022-09-17T17:04:49;14.80;44.00
60965;DHT22;46834;51.100;6.886;2022-09-17T17:07:15;14.80;44.00
60965;DHT22;46834;51.100;6.886;2022-09-17T17:09:41;14.80;44.00
60965;DHT22;46834;51.100;6.886;2022-09-17T17:12:07;14.80;44.00
60965;DHT22;46834;51.100;6.886;2022-09-17T17:14:33;14.70;44.00
60965;DHT22;46834;51.100;6.886;2022-09-17T17:16:58;14.70;44.10
60965;DHT22;46834;51.100;6.886;2022-09-17T17:19:24;14.70;44.00
60965;DHT22;46834;51.100;6.886;2022-09-17T17:21:52;14.70;43.90
60965;DHT22;46834;51.100;6.886;2022-09-17T17:24:18;14.60;43.90
60965;DHT22;46834;51.100;6.886;2022-09-17T17:26:46;14.60;43.90
60965;DHT22;46834;51.100;6.886;2022-09-17T17:29:12;14.50;43.90
60965;DHT22;46834;51.100;6.886;2022-09-17T17:31:38;14.50;43.90
60965;DHT22;46834;51.100;6.886;2022-09-17T17:34:05;14.40;43.80
60965;DHT22;46834;51.100;6.886;2022-09-17T17:36:31;14.40;43.90
60965;DHT22;46834;51.100;6.886;2022-09-17T17:38:58;14.40;43.90
60965;DHT22;46834;51.100;6.886;2022-09-17T17:41:24;14.30;43.80
60965;DHT22;46834;51.100;6.886;2022-09-17T17:43:55;14.30;44.00
60965;DHT22;46834;51.100;6.886;2022-09-17T17:46:22;14.30;43.90
60965;DHT22;46834;51.100;6.886;2022-09-17T17:48:49;14.20;44.00
60965;DHT22;46834;51.100;6.886;2022-09-17T17:51:15;14.20;44.10
60965;DHT22;46834;51.100;6.886;2022-09-17T17:53:43;14.20;44.10
60965;DHT22;46834;51.100;6.886;2022-09-17T17:56:10;14.20;44.20
60965;DHT22;46834;51.100;6.886;2022-09-17T17:58:37;14.20;44.30
60965;DHT22;46834;51.100;6.886;2022-09-17T18:01:13;14.20;44.30
60965;DHT22;46834;51.100;6.886;2022-09-17T18:03:42;14.20;44.20
60965;DHT22;46834;51.100;6.886;2022-09-17T18:06:09;14.20;44.30
60965;DHT22;46834;51.100;6.886;2022-09-17T18:08:36;14.20;44.30
60965;DHT22;46834;51.100;6.886;2022-09-17T18:11:02;14.20;44.30
60965;DHT22;46834;51.100;6.886;2022-09-17T18:13:30;14.20;44.20
60965;DHT22;46834;51.100;6.886;2022-09-17T18:15:57;14.20;44.20
60965;DHT22;46834;51.100;6.886;2022-09-17T18:18:29;14.20;44.20
60965;DHT22;46834;51.100;6.886;2022-09-17T18:21:08;14.20;44.20
60965;DHT22;46834;51.100;6.886;2022-09-17T18:23:38;14.20;44.30
60965;DHT22;46834;51.100;6.886;2022-09-17T18:26:07;14.20;44.40
60965;DHT22;46834;51.100;6.886;2022-09-17T18:28:36;14.20;44.40
60965;DHT22;46834;51.100;6.886;2022-09-17T18:31:25;14.20;44.30
60965;DHT22;46834;51.100;6.886;2022-09-17T18:34:22;14.20;44.20
60965;DHT22;46834;51.100;6.886;2022-09-17T18:36:47;14.20;44.00
60965;DHT22;46834;51.100;6.886;2022-09-17T18:39:13;14.20;44.10
60965;DHT22;46834;51.100;6.886;2022-09-17T18:41:40;14.10;44.10
60965;DHT22;46834;51.100;6.886;2022-09-17T18:44:07;14.00;44.20
60965;DHT22;46834;51.100;6.886;2022-09-17T18:46:34;14.00;44.30
60965;DHT22;46834;51.100;6.886;2022-09-17T18:49:00;14.00;44.40
60965;DHT22;46834;51.100;6.886;2022-09-17T18:51:27;14.00;44.80
60965;DHT22;46834;51.100;6.886;2022-09-17T18:53:53;13.90;44.60
60965;DHT22;46834;51.100;6.886;2022-09-17T18:58:48;13.90;44.80
60965;DHT22;46834;51.100;6.886;2022-09-17T19:01:17;13.90;44.80
60965;DHT22;46834;51.100;6.886;2022-09-17T19:03:43;13.90;44.80
60965;DHT22;46834;51.100;6.886;2022-09-17T19:06:10;13.90;44.90
60965;DHT22;46834;51.100;6.886;2022-09-17T19:08:40;13.90;44.90